Time;durP1;ratioP1;P1;durP2;ratioP2;P2;SDS_P1;SDS_P2;PMS_P1;PMS_P2;Temp;Humidity;BMP_temperature;BMP_pressure;BME280_temperature;BME280_humidity;BME280_pressure;Samples;Min_cycle;Max_cycle;Signal;HPM_P1;HPM_P2
2023/10/06 00:00:53;;;;;;;10.57;9.57;;;;;;;;;;5114413;28;20519;-57
2023/10/06 00:03:21;;;;;;;11.60;9.87;;;;;;;;;;5114596;28;20517;-57
2023/10/06 00:05:48;;;;;;;9.60;8.40;;;;;;;;;;5114557;28;20495;-58
2023/10/06 00:08:17;;;;;;;9.37;8.47;;;;;;;;;;5114367;28;20932;-57
2023/10/06 00:10:46;;;;;;;10.53;9.43;;;;;;;;;;5114437;28;20843;-58
2023/10/06 00:13:18;;;;;;;10.60;9.10;;;;;;;;;;5114260;28;20477;-58
2023/10/06 00:15:49;;;;;;;10.27;9.27;;;;;;;;;;5114431;28;20502;-58
2023/10/06 00:18:18;;;;;;;11.80;8.80;;;;;;;;;;5114436;28;20533;-57
2023/10/06 00:20:48;;;;;;;11.40;9.40;;;;;;;;;;5114241;28;20507;-58
2023/10/06 00:23:20;;;;;;;10.47;9.20;;;;;;;;;;5114069;28;20568;-57
2023/10/06 00:25:47;;;;;;;12.33;9.07;;;;;;;;;;5114055;28;20437;-57
2023/10/06 00:28:19;;;;;;;9.63;8.70;;;;;;;;;;5114002;28;20477;-57
2023/10/06 00:30:47;;;;;;;12.27;9.73;;;;;;;;;;5114124;28;20465;-57
2023/10/06 00:33:14;;;;;;;9.03;8.13;;;;;;;;;;5113987;28;20434;-57
2023/10/06 00:35:44;;;;;;;9.63;8.63;;;;;;;;;;5114370;28;20524;-57
2023/10/06 00:38:16;;;;;;;18.90;8.17;;;;;;;;;;5113906;27;20522;-57
2023/10/06 00:40:46;;;;;;;11.67;9.40;;;;;;;;;;5113993;28;20438;-57
2023/10/06 00:43:16;;;;;;;10.03;8.77;;;;;;;;;;5113900;28;20477;-57
2023/10/06 00:45:48;;;;;;;10.50;8.93;;;;;;;;;;5114087;28;20444;-57
2023/10/06 00:48:15;;;;;;;11.00;9.50;;;;;;;;;;5113806;28;20481;-57
2023/10/06 00:50:42;;;;;;;10.07;9.03;;;;;;;;;;5113616;28;20442;-57
2023/10/06 00:53:11;;;;;;;9.10;8.20;;;;;;;;;;5113553;28;20441;-57
2023/10/06 00:55:39;;;;;;;10.13;8.80;;;;;;;;;;5113729;28;20448;-58
2023/10/06 00:58:09;;;;;;;10.10;8.67;;;;;;;;;;5113741;28;20541;-57
2023/10/06 01:00:37;;;;;;;10.03;9.03;;;;;;;;;;5113601;28;20449;-57
2023/10/06 01:03:14;;;;;;;9.03;8.17;;;;;;;;;;5113000;28;20484;-57
2023/10/06 01:05:44;;;;;;;9.33;8.43;;;;;;;;;;5113770;28;20936;-58
2023/10/06 01:08:11;;;;;;;8.67;7.77;;;;;;;;;;5113638;28;20441;-57
2023/10/06 01:10:39;;;;;;;8.70;7.80;;;;;;;;;;5113389;28;20936;-57
2023/10/06 01:13:12;;;;;;;9.53;8.63;;;;;;;;;;5113449;28;20446;-58
2023/10/06 01:15:45;;;;;;;9.00;8.10;;;;;;;;;;5113333;28;20479;-58
2023/10/06 01:18:20;;;;;;;7.53;6.77;;;;;;;;;;5113560;28;20495;-57
2023/10/06 01:20:48;;;;;;;8.30;7.50;;;;;;;;;;5113503;28;20445;-58
2023/10/06 01:23:21;;;;;;;9.47;7.77;;;;;;;;;;5113306;28;20470;-58
2023/10/06 01:25:48;;;;;;;8.70;7.90;;;;;;;;;;5113390;28;20536;-58
2023/10/06 01:28:17;;;;;;;8.43;7.70;;;;;;;;;;5113043;28;20496;-57
2023/10/06 01:30:44;;;;;;;7.87;7.13;;;;;;;;;;5113505;28;20473;-57
2023/10/06 01:33:11;;;;;;;7.23;6.63;;;;;;;;;;5113449;28;20871;-57
2023/10/06 01:35:42;;;;;;;8.10;7.40;;;;;;;;;;5113348;28;20447;-57
2023/10/06 01:38:18;;;;;;;8.30;7.60;;;;;;;;;;5113278;28;20448;-57
2023/10/06 01:40:50;;;;;;;8.83;7.30;;;;;;;;;;5112920;28;20438;-57
2023/10/06 01:43:22;;;;;;;9.10;8.17;;;;;;;;;;5113195;28;20508;-58
2023/10/06 01:45:49;;;;;;;7.00;6.40;;;;;;;;;;5113138;28;20446;-57
2023/10/06 01:48:29;;;;;;;8.70;7.80;;;;;;;;;;5113260;28;20875;-58
2023/10/06 01:50:56;;;;;;;7.37;6.80;;;;;;;;;;5113155;28;20441;-57
2023/10/06 01:53:31;;;;;;;8.63;7.83;;;;;;;;;;5112874;28;20932;-57
2023/10/06 01:56:01;;;;;;;8.30;7.60;;;;;;;;;;5112989;28;20488;-57
2023/10/06 01:58:28;;;;;;;8.53;7.73;;;;;;;;;;5113060;28;20473;-57
2023/10/06 02:00:55;;;;;;;7.80;6.70;;;;;;;;;;5113120;28;20476;-57
2023/10/06 02:03:23;;;;;;;8.40;7.47;;;;;;;;;;5112934;28;20560;-57
2023/10/06 02:05:54;;;;;;;7.73;7.10;;;;;;;;;;5112870;28;20445;-57
2023/10/06 02:08:23;;;;;;;8.07;7.30;;;;;;;;;;5112858;28;20934;-58
2023/10/06 02:10:50;;;;;;;8.43;7.63;;;;;;;;;;5112997;28;20452;-58
2023/10/06 02:13:21;;;;;;;12.60;7.77;;;;;;;;;;5112927;28;20805;-58
2023/10/06 02:15:48;;;;;;;7.60;6.97;;;;;;;;;;5116625;28;20962;-58
2023/10/06 02:18:15;;;;;;;9.60;8.70;;;;;;;;;;5116582;28;20536;-58
2023/10/06 02:20:45;;;;;;;9.63;6.93;;;;;;;;;;5116785;28;20528;-58
2023/10/06 02:23:14;;;;;;;8.43;7.73;;;;;;;;;;5116548;28;20477;-58
2023/10/06 02:25:41;;;;;;;9.07;8.17;;;;;;;;;;5116568;28;20446;-58
2023/10/06 02:28:08;;;;;;;8.33;7.53;;;;;;;;;;5116214;28;20904;-58
2023/10/06 02:30:39;;;;;;;7.77;7.10;;;;;;;;;;5116388;28;20782;-59
2023/10/06 02:33:06;;;;;;;8.73;7.87;;;;;;;;;;5116195;28;20456;-58
2023/10/06 02:35:34;;;;;;;9.07;8.20;;;;;;;;;;5116487;28;20850;-58
2023/10/06 02:38:05;;;;;;;8.07;7.33;;;;;;;;;;5116429;28;20450;-58
2023/10/06 02:40:44;;;;;;;8.97;8.07;;;;;;;;;;5116298;28;20524;-58
2023/10/06 02:43:11;;;;;;;8.33;7.60;;;;;;;;;;5116028;28;20907;-58
2023/10/06 02:45:40;;;;;;;8.00;7.30;;;;;;;;;;5116033;28;20505;-58
2023/10/06 02:48:14;;;;;;;8.00;7.40;;;;;;;;;;5116181;28;20533;-58
2023/10/06 02:50:44;;;;;;;8.60;7.87;;;;;;;;;;5116234;28;20903;-58
2023/10/06 02:53:14;;;;;;;9.90;8.50;;;;;;;;;;5115932;28;20449;-57
2023/10/06 02:55:43;;;;;;;8.70;7.90;;;;;;;;;;5115818;28;20529;-58
2023/10/06 02:58:10;;;;;;;8.67;7.87;;;;;;;;;;5115961;28;20449;-58
2023/10/06 03:00:37;;;;;;;9.37;8.47;;;;;;;;;;5115844;28;20449;-58
2023/10/06 03:03:12;;;;;;;9.57;8.67;;;;;;;;;;5116041;28;20536;-58
2023/10/06 03:05:41;;;;;;;8.83;8.03;;;;;;;;;;5115766;28;20520;-59
2023/10/06 03:08:09;;;;;;;9.17;8.00;;;;;;;;;;5115577;28;20445;-58
2023/10/06 03:10:42;;;;;;;8.93;7.80;;;;;;;;;;5115804;28;20441;-57
2023/10/06 03:13:10;;;;;;;9.40;8.53;;;;;;;;;;5115729;28;20446;-58
2023/10/06 03:15:45;;;;;;;9.33;8.30;;;;;;;;;;5115857;28;20442;-58
2023/10/06 03:18:13;;;;;;;10.60;9.30;;;;;;;;;;5115827;28;20445;-57
2023/10/06 03:20:46;;;;;;;9.40;8.60;;;;;;;;;;5115153;28;20835;-57
2023/10/06 03:23:17;;;;;;;8.43;7.73;;;;;;;;;;5115300;28;20450;-59
2023/10/06 03:25:49;;;;;;;8.40;7.70;;;;;;;;;;5114226;28;20532;-59
2023/10/06 03:28:18;;;;;;;9.30;8.50;;;;;;;;;;5115002;28;20515;-59
2023/10/06 03:30:45;;;;;;;9.17;8.30;;;;;;;;;;5114988;28;20445;-59
2023/10/06 03:33:19;;;;;;;11.17;9.17;;;;;;;;;;5114830;28;20438;-59
2023/10/06 03:35:47;;;;;;;10.07;8.10;;;;;;;;;;5115111;28;20449;-59
2023/10/06 03:38:31;;;;;;;12.43;9.30;;;;;;;;;;5115007;28;20602;-59
2023/10/06 03:43:48;;;;;;;8.87;8.00;;;;;;;;;;5114703;28;20472;-59
2023/10/06 03:46:16;;;;;;;9.10;8.23;;;;;;;;;;5115256;28;20453;-60
2023/10/06 03:48:44;;;;;;;9.07;8.37;;;;;;;;;;5114924;28;20499;-59
2023/10/06 03:51:11;;;;;;;9.40;8.57;;;;;;;;;;5114660;28;21054;-59
2023/10/06 03:53:38;;;;;;;8.63;7.90;;;;;;;;;;5114723;28;20524;-59
2023/10/06 03:56:06;;;;;;;10.73;9.03;;;;;;;;;;5114869;28;20883;-59
2023/10/06 03:58:33;;;;;;;10.63;9.60;;;;;;;;;;5114776;28;20518;-57
2023/10/06 04:01:09;;;;;;;10.53;9.53;;;;;;;;;;5114811;28;20503;-57
2023/10/06 04:03:36;;;;;;;9.60;8.83;;;;;;;;;;5114649;28;20840;-57
2023/10/06 04:06:04;;;;;;;10.97;9.97;;;;;;;;;;5114507;28;20516;-57
2023/10/06 04:08:31;;;;;;;9.87;8.97;;;;;;;;;;5114349;28;20626;-59
2023/10/06 04:10:58;;;;;;;10.43;9.43;;;;;;;;;;5114291;28;20536;-58
2023/10/06 04:13:26;;;;;;;11.40;10.40;;;;;;;;;;5114531;28;20861;-57
2023/10/06 04:15:53;;;;;;;13.83;11.10;;;;;;;;;;5114589;28;20477;-57
2023/10/06 04:18:22;;;;;;;12.13;10.27;;;;;;;;;;5114281;28;20441;-57
2023/10/06 04:20:49;;;;;;;9.93;9.10;;;;;;;;;;5114166;28;20445;-57
2023/10/06 04:23:18;;;;;;;12.37;11.20;;;;;;;;;;5114203;28;20540;-58
2023/10/06 04:25:45;;;;;;;11.93;10.83;;;;;;;;;;5114223;28;20441;-57
2023/10/06 04:28:14;;;;;;;12.57;11.47;;;;;;;;;;5113956;28;20465;-57
2023/10/06 04:30:42;;;;;;;11.60;10.60;;;;;;;;;;5114159;28;20448;-57
2023/10/06 04:33:10;;;;;;;13.17;11.10;;;;;;;;;;5113971;28;20453;-57
2023/10/06 04:35:39;;;;;;;13.30;11.93;;;;;;;;;;5113911;28;20454;-57
2023/10/06 04:38:09;;;;;;;11.60;10.50;;;;;;;;;;5113917;28;20441;-57
2023/10/06 04:40:38;;;;;;;12.90;11.80;;;;;;;;;;5114065;28;20441;-57
2023/10/06 04:43:05;;;;;;;12.40;10.90;;;;;;;;;;5113794;28;20445;-57
2023/10/06 04:45:32;;;;;;;12.13;11.03;;;;;;;;;;5113757;28;20483;-57
2023/10/06 04:48:00;;;;;;;13.63;11.57;;;;;;;;;;5113720;28;20441;-57
2023/10/06 04:50:28;;;;;;;14.93;13.10;;;;;;;;;;5113525;28;20438;-57
2023/10/06 04:52:55;;;;;;;14.13;12.93;;;;;;;;;;5113665;28;20921;-57
2023/10/06 04:55:22;;;;;;;15.53;13.00;;;;;;;;;;5113671;28;20452;-57
2023/10/06 04:57:50;;;;;;;15.80;14.30;;;;;;;;;;5113918;28;20865;-58
2023/10/06 05:00:20;;;;;;;15.47;14.07;;;;;;;;;;5113537;28;20893;-58
2023/10/06 05:02:47;;;;;;;15.40;13.90;;;;;;;;;;5113435;28;20437;-58
2023/10/06 05:05:19;;;;;;;15.37;13.90;;;;;;;;;;5113656;28;20482;-58
2023/10/06 05:07:46;;;;;;;16.03;14.37;;;;;;;;;;5113627;28;20434;-58
2023/10/06 05:10:14;;;;;;;15.77;14.30;;;;;;;;;;5113485;28;20449;-59
2023/10/06 05:12:42;;;;;;;16.93;14.30;;;;;;;;;;5113439;28;20464;-58
2023/10/06 05:15:17;;;;;;;17.63;15.47;;;;;;;;;;5113396;28;20448;-58
2023/10/06 05:17:44;;;;;;;19.13;15.10;;;;;;;;;;5113711;28;20437;-58
2023/10/06 05:20:19;;;;;;;16.90;15.20;;;;;;;;;;5113487;28;20437;-58
2023/10/06 05:22:46;;;;;;;16.20;14.80;;;;;;;;;;5113303;28;20490;-58
2023/10/06 05:25:13;;;;;;;19.50;16.73;;;;;;;;;;5113260;28;20554;-58
2023/10/06 05:27:42;;;;;;;17.50;15.77;;;;;;;;;;5113359;28;20532;-59
2023/10/06 05:30:13;;;;;;;19.20;17.20;;;;;;;;;;5113434;28;20447;-58
2023/10/06 05:32:42;;;;;;;18.03;16.13;;;;;;;;;;5113197;28;20536;-58
2023/10/06 05:35:10;;;;;;;18.57;16.67;;;;;;;;;;5113264;28;20438;-58
2023/10/06 05:37:37;;;;;;;19.43;15.97;;;;;;;;;;5113178;28;20490;-58
2023/10/06 05:40:04;;;;;;;16.50;14.87;;;;;;;;;;5113070;28;20444;-58
2023/10/06 05:42:33;;;;;;;19.77;17.53;;;;;;;;;;5112949;28;20986;-58
2023/10/06 05:45:01;;;;;;;18.50;15.90;;;;;;;;;;5113052;28;20810;-58
2023/10/06 05:47:31;;;;;;;20.27;17.50;;;;;;;;;;5113101;28;20441;-58
2023/10/06 05:49:59;;;;;;;17.13;15.50;;;;;;;;;;5115644;28;20805;-58
2023/10/06 05:52:26;;;;;;;19.10;15.87;;;;;;;;;;5117179;28;20449;-58
2023/10/06 05:54:57;;;;;;;21.40;16.60;;;;;;;;;;5116927;28;20473;-58
2023/10/06 05:57:24;;;;;;;18.20;16.40;;;;;;;;;;5117193;28;20445;-58
2023/10/06 05:59:51;;;;;;;18.70;16.70;;;;;;;;;;5117097;28;20448;-58
2023/10/06 06:02:18;;;;;;;17.97;16.07;;;;;;;;;;5116936;28;20448;-58
2023/10/06 06:04:47;;;;;;;17.33;15.63;;;;;;;;;;5116744;28;20485;-58
2023/10/06 06:07:14;;;;;;;19.50;17.47;;;;;;;;;;5116762;28;20485;-58
2023/10/06 06:09:42;;;;;;;18.03;15.80;;;;;;;;;;5116944;28;20477;-58
2023/10/06 06:12:10;;;;;;;17.70;15.97;;;;;;;;;;5116804;28;20446;-58
2023/10/06 06:14:37;;;;;;;16.90;15.50;;;;;;;;;;5116700;28;20456;-58
2023/10/06 06:17:05;;;;;;;17.30;15.50;;;;;;;;;;5116610;28;20529;-58
2023/10/06 06:19:32;;;;;;;21.00;17.17;;;;;;;;;;5116510;28;20951;-58
2023/10/06 06:22:05;;;;;;;16.33;14.77;;;;;;;;;;5116458;28;20860;-58
2023/10/06 06:24:32;;;;;;;19.87;15.93;;;;;;;;;;5116559;28;20473;-58
2023/10/06 06:27:00;;;;;;;17.57;15.67;;;;;;;;;;5116436;28;20719;-58
2023/10/06 06:29:29;;;;;;;15.57;14.00;;;;;;;;;;5116306;28;20496;-58
2023/10/06 06:31:56;;;;;;;16.27;14.70;;;;;;;;;;5116406;28;20448;-58
2023/10/06 06:34:23;;;;;;;16.60;14.90;;;;;;;;;;5116186;28;20533;-59
2023/10/06 06:36:51;;;;;;;16.77;15.03;;;;;;;;;;5116137;28;20486;-58
2023/10/06 06:39:21;;;;;;;21.70;15.07;;;;;;;;;;5116419;28;21064;-58
2023/10/06 06:41:48;;;;;;;16.53;14.80;;;;;;;;;;5116275;28;20442;-58
2023/10/06 06:44:15;;;;;;;17.03;15.07;;;;;;;;;;5116075;28;20433;-58
2023/10/06 06:46:43;;;;;;;16.57;14.70;;;;;;;;;;5116057;28;20879;-58
2023/10/06 06:49:10;;;;;;;20.43;16.60;;;;;;;;;;5115783;28;20446;-58
2023/10/06 06:51:37;;;;;;;16.30;14.70;;;;;;;;;;5115844;28;21008;-60
2023/10/06 06:54:05;;;;;;;16.37;14.63;;;;;;;;;;5116033;28;20442;-58
2023/10/06 06:56:33;;;;;;;14.60;13.10;;;;;;;;;;5115914;28;20445;-58
2023/10/06 06:59:00;;;;;;;16.10;14.40;;;;;;;;;;5115771;28;20948;-58
2023/10/06 07:01:27;;;;;;;16.20;14.60;;;;;;;;;;5115543;28;20445;-59
2023/10/06 07:03:54;;;;;;;18.13;14.83;;;;;;;;;;5115832;28;20434;-59
2023/10/06 07:06:21;;;;;;;15.67;14.17;;;;;;;;;;5115566;28;20847;-58
2023/10/06 07:08:48;;;;;;;15.37;13.23;;;;;;;;;;5115578;28;20444;-61
2023/10/06 07:11:15;;;;;;;17.97;15.50;;;;;;;;;;5115536;28;20533;-57
2023/10/06 07:13:45;;;;;;;17.53;15.93;;;;;;;;;;5115301;28;20449;-60
2023/10/06 07:16:12;;;;;;;16.20;14.50;;;;;;;;;;5115223;28;20453;-60
2023/10/06 07:18:39;;;;;;;17.17;15.37;;;;;;;;;;5115587;28;20438;-60
2023/10/06 07:21:09;;;;;;;16.93;15.13;;;;;;;;;;5115260;28;20458;-60
2023/10/06 07:23:37;;;;;;;16.87;14.97;;;;;;;;;;5114942;28;20528;-58
2023/10/06 07:26:09;;;;;;;18.40;14.80;;;;;;;;;;5115026;28;20572;-60
2023/10/06 07:28:37;;;;;;;16.33;14.63;;;;;;;;;;5115035;28;20469;-61
2023/10/06 07:31:09;;;;;;;13.03;11.83;;;;;;;;;;5114870;28;20943;-61
2023/10/06 07:33:37;;;;;;;14.83;13.27;;;;;;;;;;5115166;28;20446;-59
2023/10/06 07:36:12;;;;;;;14.27;12.97;;;;;;;;;;5115361;28;20820;-61
2023/10/06 07:38:39;;;;;;;18.03;13.90;;;;;;;;;;5115029;28;20445;-61
2023/10/06 07:41:06;;;;;;;15.07;13.57;;;;;;;;;;5114841;28;20490;-60
2023/10/06 07:43:33;;;;;;;13.90;12.27;;;;;;;;;;5115025;28;20499;-60
2023/10/06 07:46:07;;;;;;;15.33;13.43;;;;;;;;;;5114833;28;20477;-60
2023/10/06 07:48:36;;;;;;;15.03;12.00;;;;;;;;;;5114849;28;20441;-60
2023/10/06 07:51:08;;;;;;;15.20;12.30;;;;;;;;;;5114541;28;20437;-61
2023/10/06 07:53:36;;;;;;;13.80;12.43;;;;;;;;;;5114386;28;20438;-62
2023/10/06 07:56:06;;;;;;;13.60;12.30;;;;;;;;;;5114745;28;20851;-61
2023/10/06 07:58:37;;;;;;;15.53;10.83;;;;;;;;;;5114573;28;20488;-65
2023/10/06 08:01:07;;;;;;;12.53;11.43;;;;;;;;;;5114563;28;20805;-61
2023/10/06 08:03:37;;;;;;;13.20;10.73;;;;;;;;;;5114529;28;20450;-60
2023/10/06 08:06:05;;;;;;;12.77;11.57;;;;;;;;;;5114329;28;21019;-60
2023/10/06 08:08:33;;;;;;;11.97;10.67;;;;;;;;;;5114606;28;20452;-60
2023/10/06 08:11:01;;;;;;;12.57;11.13;;;;;;;;;;5114412;28;20475;-60
2023/10/06 08:13:29;;;;;;;11.17;10.03;;;;;;;;;;5113900;28;20437;-61
2023/10/06 08:15:57;;;;;;;11.33;10.13;;;;;;;;;;5114151;28;20932;-60
2023/10/06 08:18:24;;;;;;;14.17;9.20;;;;;;;;;;5114258;28;20537;-60
2023/10/06 08:20:53;;;;;;;10.17;9.27;;;;;;;;;;5113993;28;20932;-61
2023/10/06 08:23:20;;;;;;;11.10;9.93;;;;;;;;;;5114147;28;20525;-62
2023/10/06 08:25:49;;;;;;;10.10;9.10;;;;;;;;;;5113976;28;21078;-60
2023/10/06 08:28:16;;;;;;;15.00;9.80;;;;;;;;;;5113807;28;20909;-61
2023/10/06 08:30:43;;;;;;;9.03;8.23;;;;;;;;;;5114022;28;20981;-61
2023/10/06 08:33:11;;;;;;;9.27;8.40;;;;;;;;;;5113761;28;20834;-61
2023/10/06 08:35:40;;;;;;;13.50;9.50;;;;;;;;;;5113772;28;20941;-61
2023/10/06 08:38:09;;;;;;;11.40;8.80;;;;;;;;;;5113987;28;20437;-61
2023/10/06 08:40:37;;;;;;;11.67;9.03;;;;;;;;;;5113556;28;20441;-60
2023/10/06 08:43:08;;;;;;;8.63;7.57;;;;;;;;;;5113770;28;20877;-61
2023/10/06 08:45:40;;;;;;;8.20;7.17;;;;;;;;;;5113547;28;20470;-61
2023/10/06 08:48:10;;;;;;;9.50;7.00;;;;;;;;;;5113898;28;20445;-61
2023/10/06 08:50:37;;;;;;;12.00;7.53;;;;;;;;;;5113786;28;20520;-61
2023/10/06 08:53:09;;;;;;;8.73;7.47;;;;;;;;;;5113696;28;20437;-61
2023/10/06 08:55:38;;;;;;;8.73;6.77;;;;;;;;;;5113875;28;20446;-60
2023/10/06 08:58:07;;;;;;;11.57;6.70;;;;;;;;;;5113522;28;20440;-60
2023/10/06 09:00:36;;;;;;;8.67;6.40;;;;;;;;;;5113658;28;20437;-61
2023/10/06 09:03:07;;;;;;;7.83;6.40;;;;;;;;;;5113406;28;20656;-61
2023/10/06 09:05:41;;;;;;;10.53;6.20;;;;;;;;;;5113621;28;20552;-62
2023/10/06 09:08:08;;;;;;;6.20;5.60;;;;;;;;;;5113553;28;20473;-59
2023/10/06 09:10:36;;;;;;;7.30;5.60;;;;;;;;;;5113284;28;20469;-59
2023/10/06 09:13:05;;;;;;;7.13;5.50;;;;;;;;;;5113151;28;20839;-61
2023/10/06 09:15:35;;;;;;;9.90;5.70;;;;;;;;;;5113412;28;20441;-59
2023/10/06 09:18:02;;;;;;;5.20;4.70;;;;;;;;;;5113145;28;20441;-60
2023/10/06 09:20:30;;;;;;;8.00;4.10;;;;;;;;;;5112991;28;20437;-58
2023/10/06 09:22:58;;;;;;;5.37;4.80;;;;;;;;;;5113303;28;20457;-60
2023/10/06 09:25:26;;;;;;;5.60;4.57;;;;;;;;;;5116425;28;20473;-58
2023/10/06 09:28:03;;;;;;;7.10;5.20;;;;;;;;;;5117083;28;20479;-59
2023/10/06 09:30:31;;;;;;;5.40;4.33;;;;;;;;;;5117310;28;20448;-59
2023/10/06 09:33:05;;;;;;;5.23;4.03;;;;;;;;;;5117403;28;20445;-59
2023/10/06 09:35:32;;;;;;;4.30;3.90;;;;;;;;;;5117180;28;20808;-59
2023/10/06 09:38:13;;;;;;;7.83;4.37;;;;;;;;;;5117127;28;20883;-58
2023/10/06 09:40:43;;;;;;;5.77;4.93;;;;;;;;;;5117323;28;20441;-59
2023/10/06 09:43:13;;;;;;;9.60;3.70;;;;;;;;;;5117160;28;20456;-60
2023/10/06 09:45:42;;;;;;;7.97;4.10;;;;;;;;;;5116999;28;20564;-60
2023/10/06 09:48:13;;;;;;;12.90;4.10;;;;;;;;;;5117068;28;20541;-58
2023/10/06 09:50:42;;;;;;;5.60;3.00;;;;;;;;;;5117128;28;20473;-58
2023/10/06 09:53:12;;;;;;;9.30;3.40;;;;;;;;;;5117147;28;20902;-59
2023/10/06 09:55:40;;;;;;;5.73;3.50;;;;;;;;;;5116843;28;20491;-60
2023/10/06 09:58:07;;;;;;;4.43;2.90;;;;;;;;;;5116958;28;20477;-58
2023/10/06 10:00:38;;;;;;;5.70;3.37;;;;;;;;;;5116806;28;20448;-59
2023/10/06 10:03:07;;;;;;;4.27;2.77;;;;;;;;;;5117018;28;20453;-61
2023/10/06 10:05:38;;;;;;;7.20;4.67;;;;;;;;;;5116585;28;20473;-59
2023/10/06 10:08:05;;;;;;;3.33;3.03;;;;;;;;;;5116958;28;20475;-60
2023/10/06 10:10:33;;;;;;;6.23;2.90;;;;;;;;;;5116587;28;20528;-62
2023/10/06 10:13:19;;;;;;;4.70;3.07;;;;;;;;;;5116621;28;20944;-59
2023/10/06 10:15:53;;;;;;;7.60;4.33;;;;;;;;;;5116743;28;20457;-59
2023/10/06 10:18:26;;;;;;;5.37;3.00;;;;;;;;;;5116678;28;20442;-60
2023/10/06 10:20:56;;;;;;;4.13;2.30;;;;;;;;;;5116574;28;20846;-65
2023/10/06 10:23:23;;;;;;;5.37;3.43;;;;;;;;;;5116484;28;20524;-66
2023/10/06 10:25:51;;;;;;;6.90;3.20;;;;;;;;;;5115994;28;20960;-66
2023/10/06 10:28:20;;;;;;;3.30;2.53;;;;;;;;;;5116279;28;20469;-66
2023/10/06 10:30:56;;;;;;;4.30;2.90;;;;;;;;;;5116381;28;20449;-66
2023/10/06 10:33:25;;;;;;;8.77;2.90;;;;;;;;;;5116637;28;20494;-67
2023/10/06 10:36:11;;;;;;;3.37;2.80;;;;;;;;;;5115638;28;20444;-67
2023/10/06 10:38:38;;;;;;;5.53;4.80;;;;;;;;;;5116375;28;20437;-67
2023/10/06 10:41:07;;;;;;;7.00;3.57;;;;;;;;;;5116139;28;20441;-67
2023/10/06 10:43:37;;;;;;;7.97;4.17;;;;;;;;;;5116015;28;20896;-67
2023/10/06 10:46:06;;;;;;;4.83;3.37;;;;;;;;;;5115970;28;20526;-67
2023/10/06 10:48:37;;;;;;;3.60;2.40;;;;;;;;;;5115866;28;20855;-67
2023/10/06 10:51:10;;;;;;;2.93;2.40;;;;;;;;;;5115927;28;20446;-67
2023/10/06 10:53:41;;;;;;;2.70;2.50;;;;;;;;;;5115577;28;20479;-67
2023/10/06 10:56:13;;;;;;;6.00;3.83;;;;;;;;;;5115896;28;20445;-67
2023/10/06 10:58:56;;;;;;;4.87;3.07;;;;;;;;;;5115840;28;20509;-67
2023/10/06 11:01:26;;;;;;;4.70;2.67;;;;;;;;;;5115622;28;20446;-67
2023/10/06 11:04:12;;;;;;;3.30;2.43;;;;;;;;;;5115801;28;20441;-67
2023/10/06 11:06:42;;;;;;;5.10;2.20;;;;;;;;;;5115696;28;20516;-67
2023/10/06 11:09:25;;;;;;;3.87;2.63;;;;;;;;;;5115831;28;20857;-67
2023/10/06 11:11:52;;;;;;;3.40;2.77;;;;;;;;;;5115503;28;20441;-67
2023/10/06 11:14:22;;;;;;;5.00;2.43;;;;;;;;;;5115665;28;20851;-67
2023/10/06 11:16:49;;;;;;;4.30;2.70;;;;;;;;;;5115532;28;20442;-67
2023/10/06 11:19:16;;;;;;;6.40;2.80;;;;;;;;;;5115350;28;20437;-67
2023/10/06 11:21:47;;;;;;;3.10;2.60;;;;;;;;;;5115288;28;20528;-67
2023/10/06 11:24:24;;;;;;;3.37;2.80;;;;;;;;;;5115212;28;20808;-67
2023/10/06 11:26:52;;;;;;;5.30;2.70;;;;;;;;;;5114993;28;21020;-67
2023/10/06 11:29:28;;;;;;;6.07;2.60;;;;;;;;;;5114988;28;20858;-67
2023/10/06 11:31:55;;;;;;;3.40;2.60;;;;;;;;;;5115159;28;20446;-67
2023/10/06 11:34:24;;;;;;;4.60;2.60;;;;;;;;;;5115060;28;20933;-67
2023/10/06 11:36:55;;;;;;;3.70;2.50;;;;;;;;;;5114870;28;20461;-67
2023/10/06 11:39:24;;;;;;;4.83;2.60;;;;;;;;;;5115093;28;20452;-68
2023/10/06 11:41:52;;;;;;;2.57;2.27;;;;;;;;;;5114949;28;20453;-67
2023/10/06 11:44:19;;;;;;;3.43;2.50;;;;;;;;;;5114922;28;20536;-67
2023/10/06 11:46:50;;;;;;;4.13;2.40;;;;;;;;;;5113857;28;20488;-67
2023/10/06 11:49:20;;;;;;;6.30;2.70;;;;;;;;;;5114656;28;20991;-67
2023/10/06 11:51:47;;;;;;;3.70;2.50;;;;;;;;;;5115031;28;20442;-67
2023/10/06 11:54:15;;;;;;;4.77;2.60;;;;;;;;;;5114707;28;20447;-67
2023/10/06 11:56:49;;;;;;;2.50;2.07;;;;;;;;;;5114474;28;20448;-68
2023/10/06 11:59:20;;;;;;;2.60;2.40;;;;;;;;;;5114557;28;20519;-70
2023/10/06 12:01:47;;;;;;;4.47;2.47;;;;;;;;;;5114388;28;20802;-68
2023/10/06 12:04:30;;;;;;;4.40;2.70;;;;;;;;;;5114541;28;20449;-68
2023/10/06 12:06:58;;;;;;;5.03;2.20;;;;;;;;;;5114425;28;20477;-69
2023/10/06 12:09:29;;;;;;;6.40;2.90;;;;;;;;;;5114352;28;20441;-68
2023/10/06 12:11:57;;;;;;;3.73;2.10;;;;;;;;;;5114206;28;20474;-67
2023/10/06 12:14:25;;;;;;;3.63;2.37;;;;;;;;;;5114418;28;20453;-67
2023/10/06 12:16:54;;;;;;;6.33;2.70;;;;;;;;;;5114177;28;20446;-67
2023/10/06 12:19:21;;;;;;;5.30;3.00;;;;;;;;;;5114287;28;20801;-67
2023/10/06 12:21:48;;;;;;;4.10;2.17;;;;;;;;;;5114204;28;20579;-67
2023/10/06 12:24:15;;;;;;;6.90;2.30;;;;;;;;;;5114042;28;20449;-68
2023/10/06 12:26:46;;;;;;;4.07;2.27;;;;;;;;;;5113787;28;20495;-68
2023/10/06 12:29:16;;;;;;;4.03;2.43;;;;;;;;;;5113850;28;20473;-67
2023/10/06 12:31:43;;;;;;;4.27;2.23;;;;;;;;;;5114060;28;20473;-67
2023/10/06 12:34:15;;;;;;;3.50;2.30;;;;;;;;;;5113865;28;20444;-67
2023/10/06 12:36:47;;;;;;;3.13;2.37;;;;;;;;;;5113863;28;20448;-69
2023/10/06 12:39:16;;;;;;;2.77;2.50;;;;;;;;;;5113740;28;20445;-67
2023/10/06 12:41:47;;;;;;;4.70;1.97;;;;;;;;;;5113974;28;20798;-67
2023/10/06 12:44:14;;;;;;;4.13;2.80;;;;;;;;;;5113864;28;20441;-66
2023/10/06 12:46:41;;;;;;;2.43;2.20;;;;;;;;;;5113590;28;20481;-67
2023/10/06 12:49:08;;;;;;;4.63;2.37;;;;;;;;;;5113630;28;20446;-66
2023/10/06 12:51:34;;;;;;;2.00;1.83;;;;;;;;;;5113513;28;20532;-65
2023/10/06 12:54:01;;;;;;;7.03;2.30;;;;;;;;;;5113757;28;20458;-64
2023/10/06 12:56:29;;;;;;;6.47;2.17;;;;;;;;;;5113687;28;20984;-65
2023/10/06 12:58:57;;;;;;;4.07;1.70;;;;;;;;;;5113708;28;20453;-65
2023/10/06 13:01:25;;;;;;;6.70;2.63;;;;;;;;;;5113481;28;20446;-65
2023/10/06 13:03:53;;;;;;;3.63;2.17;;;;;;;;;;5113461;28;20445;-64
2023/10/06 13:06:22;;;;;;;4.10;2.07;;;;;;;;;;5113274;28;20473;-65
2023/10/06 13:08:50;;;;;;;3.17;2.10;;;;;;;;;;5112307;28;20852;-65
2023/10/06 13:11:18;;;;;;;3.13;2.10;;;;;;;;;;5112801;28;20916;-65
2023/10/06 13:13:49;;;;;;;2.93;2.00;;;;;;;;;;5113294;28;20976;-66
2023/10/06 13:16:17;;;;;;;3.40;2.20;;;;;;;;;;5113270;28;20957;-66
2023/10/06 13:18:44;;;;;;;1.93;1.73;;;;;;;;;;5113121;28;20525;-65
2023/10/06 13:21:11;;;;;;;3.53;1.90;;;;;;;;;;5113077;28;21012;-67
2023/10/06 13:23:39;;;;;;;3.10;2.30;;;;;;;;;;5113195;28;20442;-66
2023/10/06 13:26:08;;;;;;;3.67;2.33;;;;;;;;;;5113153;28;20475;-65
2023/10/06 13:28:38;;;;;;;5.00;2.20;;;;;;;;;;5113109;28;20829;-65
2023/10/06 13:31:07;;;;;;;5.70;1.80;;;;;;;;;;5113019;28;20450;-65
2023/10/06 13:33:35;;;;;;;2.50;2.30;;;;;;;;;;5113390;28;20966;-65
2023/10/06 13:36:03;;;;;;;3.87;2.10;;;;;;;;;;5113090;28;20532;-66
2023/10/06 13:38:31;;;;;;;3.33;2.57;;;;;;;;;;5113222;28;20536;-66
2023/10/06 13:41:00;;;;;;;3.40;2.20;;;;;;;;;;5111219;28;20528;-66
2023/10/06 13:43:27;;;;;;;2.73;1.83;;;;;;;;;;5113061;28;20569;-66
2023/10/06 13:45:57;;;;;;;4.50;2.03;;;;;;;;;;5112918;28;20452;-66
2023/10/06 13:48:26;;;;;;;4.13;2.30;;;;;;;;;;5112985;28;20488;-66
2023/10/06 13:50:58;;;;;;;2.30;2.03;;;;;;;;;;5113217;28;20449;-66
2023/10/06 13:53:26;;;;;;;3.87;2.03;;;;;;;;;;5113065;28;20448;-66
2023/10/06 13:55:54;;;;;;;2.53;2.33;;;;;;;;;;5112958;28;20450;-66
2023/10/06 13:58:23;;;;;;;5.63;2.17;;;;;;;;;;5112729;28;20449;-66
2023/10/06 14:00:50;;;;;;;6.93;2.30;;;;;;;;;;5112963;28;20442;-64
2023/10/06 14:03:17;;;;;;;3.63;1.87;;;;;;;;;;5112803;28;20515;-66
2023/10/06 14:05:51;;;;;;;3.27;1.90;;;;;;;;;;5113031;28;20443;-64
2023/10/06 14:08:20;;;;;;;3.03;2.00;;;;;;;;;;5112753;28;20516;-64
2023/10/06 14:10:47;;;;;;;4.13;2.40;;;;;;;;;;5114751;28;20970;-64
2023/10/06 14:13:17;;;;;;;2.80;2.20;;;;;;;;;;5116943;27;20494;-64
2023/10/06 14:15:49;;;;;;;5.03;2.17;;;;;;;;;;5116898;28;20456;-64
2023/10/06 14:18:16;;;;;;;4.50;2.13;;;;;;;;;;5116714;28;20452;-65
2023/10/06 14:20:45;;;;;;;5.23;2.13;;;;;;;;;;5116739;28;20449;-65
2023/10/06 14:23:13;;;;;;;2.20;1.70;;;;;;;;;;5116458;28;20857;-65
2023/10/06 14:25:41;;;;;;;3.20;1.77;;;;;;;;;;5116629;28;20932;-65
2023/10/06 14:28:09;;;;;;;3.33;2.10;;;;;;;;;;5116187;28;20523;-65
2023/10/06 14:30:41;;;;;;;3.80;2.30;;;;;;;;;;5116429;28;20448;-65
2023/10/06 14:33:15;;;;;;;2.93;2.07;;;;;;;;;;5116269;28;20438;-65
2023/10/06 14:35:52;;;;;;;3.50;2.00;;;;;;;;;;5116176;28;20502;-66
2023/10/06 14:46:39;;;;;;;2.83;2.00;;;;;;;;;;5116006;28;20980;-65
2023/10/06 14:49:07;;;;;;;7.27;2.60;;;;;;;;;;5116048;28;20808;-65
2023/10/06 14:51:34;;;;;;;3.97;2.60;;;;;;;;;;5116010;28;20488;-65
2023/10/06 14:54:01;;;;;;;4.00;2.20;;;;;;;;;;5115922;28;20449;-65
2023/10/06 14:56:31;;;;;;;3.50;2.90;;;;;;;;;;5115713;28;20533;-65